Portada
METAR-TAF:

METAR-TAF

Aeroports :

Jakarta, Java, Indonèsia

latitud: 06-07S, longitud: 106-39E, altitud: 8 m

Observació

L'informe es va fer fa 16 minuts, a les 17:30 UTC
Vent 4 kt amb direcció variable
Temperatura 26°C
Humitat 89%
Pressió 1011 hPa
Visibilitat: 5000 m
Escasses núvols a una alçada de 2000 ft
calitja

METAR: WIII 211730Z VRB04KT 5000 HZ FEW020 26/24 Q1011 NOSIG

Hora: 00:46 (17:46 UTC)

Pronòstic

L'informe es va fer fa 46 minuts, a les 17:00 UTC
Pronòstic vàlid del 21 a les 18 UTC al 22 a les 24 UTC
Vent 5 kt del Oest/Sud-Oest
Visibilitat: 3000 m
Escasses núvols a una alçada de 2000 ft
boirina

TAF: WIII 211700Z 2118/2224 25005KT 3000 BR FEW020

Observacions i pronòstics meteorològics de més de 4000 aeroports (METAR i TAF).

Les estacions disponibles són els punts grocs i vermells al mapa.

Posi el ratolí al punt desitjat per veure el nom de l'estació.

Feu clic per veure les observacions i els pronòstics meteorològics.

Per canviar el mapa: feu clic els botons verds amb una creu de color negre per apropar; al botó verd amb un guió per allunyar la imatge; o en les fletxes verdes per a mapes adjacents.


METAR-TAF: